Time;durP1;ratioP1;P1;durP2;ratioP2;P2;SDS_P1;SDS_P2;PMS_P1;PMS_P2;Temp;Humidity;BMP_temperature;BMP_pressure;BME280_temperature;BME280_humidity;BME280_pressure;Samples;Min_cycle;Max_cycle;Signal;HPM_P1;HPM_P2
2023/03/15 00:00:53;;;;;;;3.70;1.90;;;;;;;;;;5079683;28;20214;-66
2023/03/15 00:03:18;;;;;;;4.60;2.17;;;;;;;;;;5070612;28;20236;-66
2023/03/15 00:05:44;;;;;;;3.17;1.70;;;;;;;;;;5060141;28;20670;-65
2023/03/15 00:08:11;;;;;;;3.93;1.87;;;;;;;;;;5059694;28;20238;-65
2023/03/15 00:10:43;;;;;;;4.80;1.80;;;;;;;;;;5059765;28;20207;-65
2023/03/15 00:13:09;;;;;;;4.63;1.80;;;;;;;;;;5061090;28;20276;-65
2023/03/15 00:15:34;;;;;;;5.07;1.90;;;;;;;;;;5054234;28;20765;-65
2023/03/15 00:18:02;;;;;;;4.10;1.90;;;;;;;;;;5052597;28;20258;-65
2023/03/15 00:20:27;;;;;;;3.80;1.90;;;;;;;;;;5071678;28;20216;-65
2023/03/15 00:22:52;;;;;;;4.03;1.63;;;;;;;;;;5077691;28;20213;-65
2023/03/15 00:25:18;;;;;;;3.50;1.30;;;;;;;;;;5079571;28;20569;-64
2023/03/15 00:27:43;;;;;;;2.30;1.27;;;;;;;;;;5062881;28;20210;-65
2023/03/15 00:30:09;;;;;;;2.40;1.38;;;;;;;;;;5058770;28;20254;-64
2023/03/15 00:32:34;;;;;;;1.93;1.20;;;;;;;;;;5059830;28;20697;-65
2023/03/15 00:35:00;;;;;;;2.37;1.50;;;;;;;;;;5060415;28;20219;-65
2023/03/15 00:37:29;;;;;;;2.30;1.20;;;;;;;;;;5055338;28;20975;-65
2023/03/15 00:39:54;;;;;;;2.07;1.00;;;;;;;;;;5072450;28;20247;-65
2023/03/15 00:42:19;;;;;;;1.57;0.83;;;;;;;;;;5071502;28;20214;-65
2023/03/15 00:44:45;;;;;;;2.23;0.90;;;;;;;;;;5075781;28;20220;-65
2023/03/15 00:47:10;;;;;;;2.10;0.80;;;;;;;;;;5079168;28;20210;-64
2023/03/15 00:49:35;;;;;;;1.07;0.70;;;;;;;;;;5061039;28;20256;-65
2023/03/15 00:52:01;;;;;;;1.17;1.00;;;;;;;;;;5058807;28;20305;-64
2023/03/15 00:54:26;;;;;;;1.23;0.73;;;;;;;;;;5063774;28;20568;-64
2023/03/15 00:56:51;;;;;;;1.63;0.90;;;;;;;;;;5063163;28;20214;-65
2023/03/15 00:59:17;;;;;;;1.13;1.00;;;;;;;;;;5061213;28;20218;-64
2023/03/15 01:01:43;;;;;;;1.27;0.95;;;;;;;;;;5055924;28;20910;-65
2023/03/15 01:04:10;;;;;;;2.37;1.10;;;;;;;;;;5055548;28;20880;-64
2023/03/15 01:06:36;;;;;;;1.63;1.00;;;;;;;;;;5056617;28;20225;-64
2023/03/15 01:09:01;;;;;;;1.67;1.10;;;;;;;;;;5073146;28;20202;-64
2023/03/15 01:11:26;;;;;;;1.20;1.10;;;;;;;;;;5093295;28;20266;-64
2023/03/15 01:13:52;;;;;;;2.43;1.30;;;;;;;;;;5092407;28;20224;-64
2023/03/15 01:16:17;;;;;;;1.80;1.10;;;;;;;;;;5092590;28;20789;-65
2023/03/15 01:18:43;;;;;;;1.77;1.20;;;;;;;;;;5080723;28;20222;-64
2023/03/15 01:21:09;;;;;;;2.50;1.50;;;;;;;;;;5072417;28;20642;-65
2023/03/15 01:23:34;;;;;;;1.87;1.50;;;;;;;;;;5072569;28;20207;-64
2023/03/15 01:26:00;;;;;;;1.90;1.50;;;;;;;;;;5075207;28;20205;-64
2023/03/15 01:28:25;;;;;;;2.73;1.73;;;;;;;;;;5092665;28;20574;-64
2023/03/15 01:30:50;;;;;;;3.50;2.00;;;;;;;;;;5092736;28;20757;-64
2023/03/15 01:33:16;;;;;;;2.93;1.90;;;;;;;;;;5091326;28;20341;-64
2023/03/15 01:35:41;;;;;;;2.67;1.80;;;;;;;;;;5092804;28;20205;-64
2023/03/15 01:38:06;;;;;;;2.77;2.07;;;;;;;;;;5092113;28;20210;-64
2023/03/15 01:40:32;;;;;;;4.20;2.53;;;;;;;;;;5092108;28;20209;-64
2023/03/15 01:43:03;;;;;;;3.50;2.40;;;;;;;;;;5092673;28;20308;-64
2023/03/15 01:45:48;;;;;;;4.13;2.60;;;;;;;;;;5092334;28;20209;-64
2023/03/15 01:48:14;;;;;;;4.13;2.60;;;;;;;;;;5091028;28;20300;-64
2023/03/15 01:50:39;;;;;;;4.23;2.40;;;;;;;;;;5092398;28;20736;-65
2023/03/15 01:53:04;;;;;;;4.53;2.53;;;;;;;;;;5091752;28;20807;-64
2023/03/15 01:55:31;;;;;;;4.10;2.60;;;;;;;;;;5073819;28;20692;-64
2023/03/15 01:57:56;;;;;;;5.00;3.17;;;;;;;;;;5074535;28;20214;-65
2023/03/15 02:00:22;;;;;;;4.20;2.70;;;;;;;;;;5091710;28;20485;-64
2023/03/15 02:02:49;;;;;;;4.57;3.00;;;;;;;;;;5091399;28;20210;-67
2023/03/15 02:05:17;;;;;;;5.43;3.00;;;;;;;;;;5064483;28;20303;-68
2023/03/15 02:07:48;;;;;;;5.87;2.63;;;;;;;;;;5062014;28;20571;-67
2023/03/15 02:10:14;;;;;;;6.07;2.97;;;;;;;;;;5052936;28;20215;-67
2023/03/15 02:12:40;;;;;;;7.03;3.17;;;;;;;;;;5061897;28;20241;-68
2023/03/15 02:15:06;;;;;;;4.43;2.65;;;;;;;;;;5062641;28;20274;-67
2023/03/15 02:17:35;;;;;;;5.03;2.90;;;;;;;;;;5062502;28;20221;-68
2023/03/15 02:20:08;;;;;;;5.17;3.47;;;;;;;;;;5054530;28;20206;-67
2023/03/15 02:22:39;;;;;;;5.95;3.08;;;;;;;;;;5055128;28;20214;-67
2023/03/15 02:25:08;;;;;;;5.10;3.20;;;;;;;;;;5056760;28;20253;-67
2023/03/15 02:27:33;;;;;;;8.97;3.70;;;;;;;;;;5066208;28;20214;-67
2023/03/15 02:30:02;;;;;;;5.53;3.03;;;;;;;;;;5062346;28;20228;-67
2023/03/15 02:32:27;;;;;;;7.03;3.40;;;;;;;;;;5064092;28;20991;-67
2023/03/15 02:34:52;;;;;;;3.80;2.80;;;;;;;;;;5081354;28;20719;-67
2023/03/15 02:37:18;;;;;;;7.30;3.30;;;;;;;;;;5080671;28;20313;-67
2023/03/15 02:39:43;;;;;;;8.70;3.20;;;;;;;;;;5081258;28;20213;-67
2023/03/15 02:42:08;;;;;;;4.83;3.20;;;;;;;;;;5075383;28;20241;-67
2023/03/15 02:44:35;;;;;;;8.67;3.00;;;;;;;;;;5073323;28;20237;-68
2023/03/15 02:47:03;;;;;;;5.27;2.80;;;;;;;;;;5074062;28;20300;-68
2023/03/15 02:49:29;;;;;;;6.93;3.17;;;;;;;;;;5061141;28;20210;-68
2023/03/15 02:51:54;;;;;;;5.43;3.37;;;;;;;;;;5080694;28;20283;-67
2023/03/15 02:54:20;;;;;;;6.40;3.30;;;;;;;;;;5080279;28;20290;-67
2023/03/15 02:56:45;;;;;;;5.60;3.73;;;;;;;;;;5081365;28;20704;-67
2023/03/15 02:59:11;;;;;;;7.43;3.70;;;;;;;;;;5079698;28;20555;-67
2023/03/15 03:01:37;;;;;;;8.10;4.00;;;;;;;;;;5081376;28;20206;-67
2023/03/15 03:04:02;;;;;;;4.17;3.00;;;;;;;;;;5062278;28;20249;-66
2023/03/15 03:06:27;;;;;;;5.23;3.40;;;;;;;;;;5053102;28;21038;-67
2023/03/15 03:08:52;;;;;;;5.50;3.23;;;;;;;;;;5061088;28;20206;-67
2023/03/15 03:11:18;;;;;;;7.53;3.60;;;;;;;;;;5087987;28;20261;-68
2023/03/15 03:13:43;;;;;;;7.23;3.60;;;;;;;;;;5090852;28;20245;-68
2023/03/15 03:16:08;;;;;;;5.17;3.67;;;;;;;;;;5089995;28;20213;-67
2023/03/15 03:18:34;;;;;;;7.40;4.27;;;;;;;;;;5089878;28;20329;-67
2023/03/15 03:21:00;;;;;;;6.47;4.80;;;;;;;;;;5072672;28;20297;-67
2023/03/15 03:23:25;;;;;;;5.17;3.87;;;;;;;;;;5090212;28;20608;-68
2023/03/15 03:25:52;;;;;;;6.03;3.90;;;;;;;;;;5089782;28;20210;-68
2023/03/15 03:28:18;;;;;;;7.37;4.47;;;;;;;;;;5090199;28;20220;-67
2023/03/15 03:30:43;;;;;;;7.38;4.55;;;;;;;;;;5090511;28;20205;-67
2023/03/15 03:33:08;;;;;;;6.67;4.30;;;;;;;;;;5089461;28;20227;-67
2023/03/15 03:35:34;;;;;;;6.13;4.37;;;;;;;;;;5090387;28;20197;-67
2023/03/15 03:37:59;;;;;;;7.27;5.03;;;;;;;;;;5090991;28;20296;-67
2023/03/15 03:40:24;;;;;;;7.87;4.77;;;;;;;;;;5070927;28;20210;-67
2023/03/15 03:42:50;;;;;;;7.67;4.70;;;;;;;;;;5090509;28;20209;-67
2023/03/15 03:45:15;;;;;;;5.70;4.40;;;;;;;;;;5089910;28;20217;-67
2023/03/15 03:47:40;;;;;;;6.83;4.53;;;;;;;;;;5074022;28;20214;-68
2023/03/15 03:50:06;;;;;;;6.43;4.40;;;;;;;;;;5056974;28;20210;-66
2023/03/15 03:52:31;;;;;;;6.43;4.40;;;;;;;;;;5060235;28;20249;-67
2023/03/15 03:54:57;;;;;;;7.03;4.57;;;;;;;;;;5059906;28;20700;-68
2023/03/15 03:57:22;;;;;;;8.87;5.37;;;;;;;;;;5059760;28;20214;-67
2023/03/15 03:59:47;;;;;;;7.27;4.87;;;;;;;;;;5071845;28;20267;-67
2023/03/15 04:02:12;;;;;;;9.17;4.50;;;;;;;;;;5078997;28;20705;-67
2023/03/15 04:04:40;;;;;;;8.50;4.50;;;;;;;;;;5059617;28;20259;-67
2023/03/15 04:07:05;;;;;;;5.83;3.97;;;;;;;;;;5072297;28;20218;-67
2023/03/15 04:09:30;;;;;;;5.87;4.10;;;;;;;;;;5071751;28;20270;-67
2023/03/15 04:11:56;;;;;;;7.47;4.47;;;;;;;;;;5074163;28;20264;-68
2023/03/15 04:14:21;;;;;;;6.47;4.50;;;;;;;;;;5079490;28;20213;-67
2023/03/15 04:16:46;;;;;;;6.43;3.67;;;;;;;;;;5067677;28;20303;-67
2023/03/15 04:19:12;;;;;;;6.60;3.97;;;;;;;;;;5059473;28;20694;-67
2023/03/15 04:21:37;;;;;;;7.80;3.93;;;;;;;;;;5079004;28;20209;-68
2023/03/15 04:24:02;;;;;;;6.90;4.20;;;;;;;;;;5079400;28;20377;-67
2023/03/15 04:26:27;;;;;;;6.83;3.90;;;;;;;;;;5073024;28;20608;-68
2023/03/15 04:28:53;;;;;;;7.30;4.37;;;;;;;;;;5056670;28;20209;-68
2023/03/15 04:31:19;;;;;;;6.70;4.13;;;;;;;;;;5056048;28;20241;-67
2023/03/15 04:33:44;;;;;;;7.03;4.40;;;;;;;;;;5056732;28;20301;-68
2023/03/15 04:36:17;;;;;;;6.17;4.40;;;;;;;;;;5061668;28;20210;-67
2023/03/15 04:38:45;;;;;;;6.53;4.10;;;;;;;;;;5083545;28;20674;-67
2023/03/15 04:41:11;;;;;;;6.70;4.60;;;;;;;;;;5082918;28;20210;-67
2023/03/15 04:43:36;;;;;;;7.60;5.53;;;;;;;;;;5083508;28;20562;-67
2023/03/15 04:46:02;;;;;;;7.80;5.67;;;;;;;;;;5082935;28;20259;-66
2023/03/15 04:48:27;;;;;;;8.77;6.30;;;;;;;;;;5074587;28;20280;-67
2023/03/15 04:50:52;;;;;;;10.13;6.70;;;;;;;;;;5058052;28;20232;-67
2023/03/15 04:53:17;;;;;;;10.70;7.67;;;;;;;;;;5055554;28;20270;-67
2023/03/15 04:55:43;;;;;;;9.37;6.80;;;;;;;;;;5055532;28;20713;-67
2023/03/15 04:58:08;;;;;;;8.03;6.70;;;;;;;;;;5059623;28;20394;-67
2023/03/15 05:00:33;;;;;;;9.53;7.03;;;;;;;;;;5063502;28;20211;-67
2023/03/15 05:02:59;;;;;;;10.33;6.10;;;;;;;;;;5063568;28;20612;-67
2023/03/15 05:05:24;;;;;;;8.17;6.43;;;;;;;;;;5062381;28;20218;-67
2023/03/15 05:07:50;;;;;;;8.90;6.43;;;;;;;;;;5062972;28;20213;-67
2023/03/15 05:10:15;;;;;;;8.17;5.87;;;;;;;;;;5068077;28;20286;-67
2023/03/15 05:12:40;;;;;;;9.27;5.77;;;;;;;;;;5080039;28;20799;-67
2023/03/15 05:15:06;;;;;;;7.47;5.80;;;;;;;;;;5075398;28;20202;-65
2023/03/15 05:17:32;;;;;;;9.37;5.60;;;;;;;;;;5057655;28;20227;-67
2023/03/15 05:20:00;;;;;;;8.87;6.00;;;;;;;;;;5076833;28;20668;-67
2023/03/15 05:22:26;;;;;;;8.10;5.63;;;;;;;;;;5082629;28;20213;-67
2023/03/15 05:24:52;;;;;;;7.93;5.67;;;;;;;;;;5082460;28;20235;-67
2023/03/15 05:27:18;;;;;;;8.77;5.10;;;;;;;;;;5068750;28;20221;-67
2023/03/15 05:29:44;;;;;;;8.80;5.43;;;;;;;;;;5062849;28;20588;-67
2023/03/15 05:32:09;;;;;;;9.30;5.30;;;;;;;;;;5061363;28;20234;-67
2023/03/15 05:34:34;;;;;;;9.37;5.50;;;;;;;;;;5062475;28;20214;-68
2023/03/15 05:37:00;;;;;;;9.10;4.83;;;;;;;;;;5055796;28;20198;-68
2023/03/15 05:39:25;;;;;;;8.50;4.70;;;;;;;;;;5054160;28;20352;-68
2023/03/15 05:41:50;;;;;;;7.03;4.77;;;;;;;;;;5055336;28;20850;-67
2023/03/15 05:44:16;;;;;;;9.53;5.63;;;;;;;;;;5081726;28;20645;-67
2023/03/15 05:46:41;;;;;;;7.10;4.97;;;;;;;;;;5081678;28;20224;-67
2023/03/15 05:49:07;;;;;;;9.00;5.53;;;;;;;;;;5067072;28;20218;-66
2023/03/15 05:51:32;;;;;;;8.97;4.93;;;;;;;;;;5062321;28;20229;-68
2023/03/15 05:53:57;;;;;;;9.03;5.23;;;;;;;;;;5061741;28;20689;-67
2023/03/15 05:56:22;;;;;;;8.53;5.00;;;;;;;;;;5061814;28;21097;-67
2023/03/15 05:58:48;;;;;;;6.90;4.80;;;;;;;;;;5057268;28;20199;-67
2023/03/15 06:01:13;;;;;;;7.90;4.90;;;;;;;;;;5053174;28;20215;-67
2023/03/15 06:03:38;;;;;;;8.10;5.07;;;;;;;;;;5055503;28;20261;-67
2023/03/15 06:06:04;;;;;;;7.70;4.97;;;;;;;;;;5059278;28;20969;-67
2023/03/15 06:08:29;;;;;;;7.87;4.90;;;;;;;;;;5061549;28;20283;-67
2023/03/15 06:10:54;;;;;;;8.97;5.27;;;;;;;;;;5053178;28;20687;-67
2023/03/15 06:13:20;;;;;;;9.90;5.53;;;;;;;;;;5071550;28;20257;-66
2023/03/15 06:15:45;;;;;;;9.93;5.43;;;;;;;;;;5090645;28;20647;-67
2023/03/15 06:18:12;;;;;;;9.47;6.10;;;;;;;;;;5090799;28;20267;-65
2023/03/15 06:20:38;;;;;;;8.73;5.27;;;;;;;;;;5091564;28;20074;-65
2023/03/15 06:23:03;;;;;;;10.77;4.80;;;;;;;;;;5090467;28;20296;-65
2023/03/15 06:25:29;;;;;;;8.33;5.53;;;;;;;;;;5091149;28;20769;-65
2023/03/15 06:27:54;;;;;;;13.47;4.70;;;;;;;;;;5091712;28;20459;-66
2023/03/15 06:30:20;;;;;;;9.20;5.00;;;;;;;;;;5089115;28;20424;-65
2023/03/15 06:32:45;;;;;;;9.25;4.03;;;;;;;;;;5091458;28;20758;-66
2023/03/15 06:35:10;;;;;;;9.07;4.03;;;;;;;;;;5090396;28;20214;-65
2023/03/15 06:37:36;;;;;;;8.07;4.40;;;;;;;;;;5090708;28;20210;-65
2023/03/15 06:40:06;;;;;;;9.27;3.80;;;;;;;;;;5090349;28;20203;-64
2023/03/15 06:42:31;;;;;;;10.73;3.53;;;;;;;;;;5090358;28;20243;-66
2023/03/15 06:44:57;;;;;;;8.07;3.80;;;;;;;;;;5090679;28;20202;-65
2023/03/15 06:47:22;;;;;;;10.20;4.23;;;;;;;;;;5090278;28;20236;-66
2023/03/15 06:49:49;;;;;;;8.23;3.50;;;;;;;;;;5089487;28;20664;-66
2023/03/15 06:52:14;;;;;;;6.57;3.20;;;;;;;;;;5090076;28;20228;-66
2023/03/15 06:54:40;;;;;;;6.90;3.03;;;;;;;;;;5090576;28;20202;-66
2023/03/15 06:57:05;;;;;;;7.77;2.77;;;;;;;;;;5089467;28;20217;-64
2023/03/15 06:59:30;;;;;;;8.00;2.95;;;;;;;;;;5090585;28;20233;-65
2023/03/15 07:01:55;;;;;;;7.78;3.28;;;;;;;;;;5090522;28;20297;-64
2023/03/15 07:04:21;;;;;;;5.95;2.97;;;;;;;;;;5089190;28;20291;-64
2023/03/15 07:06:46;;;;;;;7.50;3.15;;;;;;;;;;5090516;28;20669;-65
2023/03/15 07:09:11;;;;;;;7.72;3.38;;;;;;;;;;5089989;28;20206;-64
2023/03/15 07:11:37;;;;;;;5.00;2.70;;;;;;;;;;5096242;28;20305;-65
2023/03/15 07:14:02;;;;;;;4.97;2.58;;;;;;;;;;5089699;28;20658;-65
2023/03/15 07:16:29;;;;;;;7.60;2.50;;;;;;;;;;5089833;28;20627;-65
2023/03/15 07:18:58;;;;;;;6.55;2.40;;;;;;;;;;5089396;28;20256;-65
2023/03/15 07:21:23;;;;;;;6.68;2.35;;;;;;;;;;5084454;28;20262;-64
2023/03/15 07:23:48;;;;;;;4.20;2.22;;;;;;;;;;5090089;28;20640;-65
2023/03/15 07:26:14;;;;;;;5.30;2.10;;;;;;;;;;5087744;28;20432;-66
2023/03/15 07:28:39;;;;;;;4.70;2.03;;;;;;;;;;5091318;28;20210;-65
2023/03/15 07:31:04;;;;;;;7.38;1.70;;;;;;;;;;5093971;28;20264;-66
2023/03/15 07:33:30;;;;;;;4.70;1.67;;;;;;;;;;5089768;28;20233;-66
2023/03/15 07:35:56;;;;;;;4.15;1.60;;;;;;;;;;5084529;28;20676;-65
2023/03/15 07:38:22;;;;;;;2.85;1.20;;;;;;;;;;5087612;28;20224;-65
2023/03/15 07:40:47;;;;;;;3.97;1.30;;;;;;;;;;5089593;28;20233;-66
2023/03/15 07:43:12;;;;;;;4.45;1.55;;;;;;;;;;5089927;28;20222;-65
2023/03/15 07:45:38;;;;;;;3.40;1.23;;;;;;;;;;5089468;28;20205;-65
2023/03/15 07:48:03;;;;;;;4.30;1.23;;;;;;;;;;5089381;28;20210;-65
2023/03/15 07:50:28;;;;;;;4.45;1.35;;;;;;;;;;5099063;28;20224;-65
2023/03/15 07:52:54;;;;;;;5.57;2.05;;;;;;;;;;5099025;28;20240;-65
2023/03/15 07:55:19;;;;;;;4.93;2.03;;;;;;;;;;5100395;28;20209;-65
2023/03/15 07:57:44;;;;;;;6.32;2.10;;;;;;;;;;5098781;28;20202;-65
2023/03/15 08:00:11;;;;;;;4.90;2.00;;;;;;;;;;5099162;28;20295;-64
2023/03/15 08:02:37;;;;;;;4.47;1.85;;;;;;;;;;5101869;28;20233;-66
2023/03/15 08:05:03;;;;;;;3.78;1.70;;;;;;;;;;5103981;28;20232;-63
2023/03/15 08:07:28;;;;;;;4.28;1.50;;;;;;;;;;5108972;28;20291;-65
2023/03/15 08:09:54;;;;;;;5.38;1.48;;;;;;;;;;5114776;28;20292;-65
2023/03/15 08:12:19;;;;;;;12.95;7.57;;;;;;;;;;5114005;28;20231;-65
2023/03/15 08:14:44;;;;;;;6.90;3.67;;;;;;;;;;5113957;28;20646;-65
2023/03/15 08:17:11;;;;;;;6.68;1.70;;;;;;;;;;5113835;28;20241;-65
2023/03/15 08:19:37;;;;;;;4.43;1.40;;;;;;;;;;5095348;28;20210;-65
2023/03/15 08:22:03;;;;;;;4.45;1.30;;;;;;;;;;5092934;28;20213;-64
2023/03/15 08:24:28;;;;;;;4.47;1.20;;;;;;;;;;5093986;28;20583;-65
2023/03/15 08:26:53;;;;;;;5.03;1.33;;;;;;;;;;5093899;28;20239;-65
2023/03/15 08:29:19;;;;;;;6.28;1.40;;;;;;;;;;5092768;28;20220;-64
2023/03/15 08:31:44;;;;;;;5.60;1.63;;;;;;;;;;5093875;28;20221;-65
2023/03/15 08:34:10;;;;;;;5.00;1.20;;;;;;;;;;5093396;28;20671;-64
2023/03/15 08:36:36;;;;;;;4.78;1.15;;;;;;;;;;5092989;28;20217;-65
2023/03/15 08:39:02;;;;;;;5.03;1.20;;;;;;;;;;5093512;28;20268;-64
2023/03/15 08:41:27;;;;;;;5.57;1.20;;;;;;;;;;5093852;28;20292;-64
2023/03/15 08:43:52;;;;;;;7.47;1.45;;;;;;;;;;5092669;28;20225;-64
2023/03/15 08:46:20;;;;;;;6.18;1.70;;;;;;;;;;5093305;28;20228;-64
2023/03/15 08:48:46;;;;;;;8.00;1.10;;;;;;;;;;5093303;28;20594;-64
2023/03/15 08:51:12;;;;;;;6.00;1.30;;;;;;;;;;5091953;28;20742;-64
2023/03/15 08:53:37;;;;;;;6.85;1.10;;;;;;;;;;5093666;28;20280;-64
2023/03/15 08:56:03;;;;;;;5.38;1.20;;;;;;;;;;5092419;28;20233;-63
2023/03/15 08:58:28;;;;;;;4.70;1.33;;;;;;;;;;5093428;28;20309;-64
2023/03/15 09:00:54;;;;;;;6.22;1.30;;;;;;;;;;5093306;28;20208;-64
2023/03/15 09:03:21;;;;;;;6.28;1.30;;;;;;;;;;5091894;28;20214;-64
2023/03/15 09:05:46;;;;;;;4.32;1.23;;;;;;;;;;5090938;28;20217;-64
2023/03/15 09:08:12;;;;;;;4.05;1.20;;;;;;;;;;5092958;28;20213;-65
2023/03/15 09:10:38;;;;;;;6.50;1.55;;;;;;;;;;5092504;28;20209;-65
2023/03/15 09:13:03;;;;;;;1.00;0.60;;;;;;;;;;5092023;28;20222;-64
2023/03/15 09:15:29;;;;;;;2.60;0.95;;;;;;;;;;5093250;28;20202;-64
2023/03/15 09:17:54;;;;;;;3.45;1.00;;;;;;;;;;5091911;28;20610;-64
2023/03/15 09:20:21;;;;;;;2.22;0.70;;;;;;;;;;5092248;28;20334;-64
2023/03/15 09:22:51;;;;;;;3.65;0.93;;;;;;;;;;5075361;28;20680;-64
2023/03/15 09:25:16;;;;;;;3.47;0.80;;;;;;;;;;5091606;28;20221;-64
2023/03/15 09:27:41;;;;;;;2.58;0.82;;;;;;;;;;5092916;28;20198;-64
2023/03/15 09:30:07;;;;;;;2.75;1.08;;;;;;;;;;5092226;28;20407;-64
2023/03/15 09:32:35;;;;;;;7.10;1.42;;;;;;;;;;5091872;28;20248;-64
2023/03/15 09:35:00;;;;;;;4.05;1.20;;;;;;;;;;5092522;28;20863;-63
2023/03/15 09:37:27;;;;;;;7.50;1.73;;;;;;;;;;5092427;28;20210;-64
2023/03/15 09:39:52;;;;;;;6.13;1.45;;;;;;;;;;5092096;28;20198;-64
2023/03/15 09:42:21;;;;;;;5.55;1.20;;;;;;;;;;5092022;28;20222;-64
2023/03/15 09:44:47;;;;;;;1.88;0.80;;;;;;;;;;5074424;28;20209;-64
2023/03/15 09:47:24;;;;;;;6.95;1.60;;;;;;;;;;5091368;28;20210;-64
2023/03/15 09:49:53;;;;;;;5.03;3.00;;;;;;;;;;5072004;28;20194;-64
2023/03/15 09:52:23;;;;;;;4.05;1.48;;;;;;;;;;5070971;28;20250;-64
2023/03/15 09:54:50;;;;;;;5.13;1.30;;;;;;;;;;5054215;28;20736;-64
2023/03/15 09:57:16;;;;;;;5.70;1.52;;;;;;;;;;5053799;28;20210;-64
2023/03/15 09:59:42;;;;;;;4.40;1.25;;;;;;;;;;5071078;28;20288;-64
2023/03/15 10:02:23;;;;;;;5.35;1.30;;;;;;;;;;5071424;28;20290;-63
2023/03/15 10:04:50;;;;;;;3.70;1.15;;;;;;;;;;5071838;28;20210;-64
2023/03/15 10:07:16;;;;;;;6.32;1.20;;;;;;;;;;5064325;28;20222;-63
2023/03/15 10:09:42;;;;;;;6.30;1.20;;;;;;;;;;5091857;28;20206;-64
2023/03/15 10:12:07;;;;;;;5.35;1.00;;;;;;;;;;5091351;28;20892;-63
2023/03/15 10:14:54;;;;;;;4.03;1.10;;;;;;;;;;5090844;28;20228;-63
2023/03/15 10:17:20;;;;;;;4.72;1.00;;;;;;;;;;5073422;28;20224;-63
2023/03/15 10:19:46;;;;;;;6.90;1.10;;;;;;;;;;5073759;28;20209;-63
2023/03/15 10:22:12;;;;;;;3.92;0.98;;;;;;;;;;5090357;28;20212;-63
2023/03/15 10:24:39;;;;;;;7.07;1.60;;;;;;;;;;5090842;28;20217;-63
2023/03/15 10:27:08;;;;;;;8.20;1.48;;;;;;;;;;5091322;28;20245;-63
2023/03/15 10:29:33;;;;;;;7.70;1.55;;;;;;;;;;5072875;28;20236;-63
2023/03/15 10:31:59;;;;;;;6.10;1.20;;;;;;;;;;5073632;28;20684;-63
2023/03/15 10:34:25;;;;;;;5.60;1.70;;;;;;;;;;5072298;28;20285;-63
2023/03/15 10:36:54;;;;;;;4.97;1.02;;;;;;;;;;5091205;28;20212;-64
2023/03/15 10:39:20;;;;;;;3.90;1.10;;;;;;;;;;5090927;28;20224;-63
2023/03/15 10:41:46;;;;;;;4.75;1.25;;;;;;;;;;5090749;28;20206;-64
2023/03/15 10:44:13;;;;;;;6.32;1.50;;;;;;;;;;5090939;28;20225;-63
2023/03/15 10:46:39;;;;;;;5.15;1.33;;;;;;;;;;5091403;28;20202;-63
2023/03/15 10:49:11;;;;;;;6.32;1.20;;;;;;;;;;5090031;28;20691;-63
2023/03/15 10:51:38;;;;;;;4.88;1.25;;;;;;;;;;5090872;28;20290;-63
2023/03/15 10:54:04;;;;;;;4.38;1.40;;;;;;;;;;5090726;28;20566;-63
2023/03/15 10:56:30;;;;;;;5.63;1.38;;;;;;;;;;5090454;28;20687;-64
2023/03/15 10:58:56;;;;;;;5.85;1.40;;;;;;;;;;5073250;28;20281;-63
2023/03/15 11:01:23;;;;;;;5.65;1.30;;;;;;;;;;5090395;28;20297;-63
2023/03/15 11:03:59;;;;;;;5.72;1.67;;;;;;;;;;5072313;28;20251;-63
2023/03/15 11:06:24;;;;;;;5.18;1.35;;;;;;;;;;5090412;28;20205;-63
2023/03/15 11:08:50;;;;;;;6.15;1.45;;;;;;;;;;5090781;28;20210;-63
2023/03/15 11:11:15;;;;;;;5.43;1.30;;;;;;;;;;5089632;28;20240;-63
2023/03/15 11:13:40;;;;;;;5.38;1.30;;;;;;;;;;5090916;28;20202;-63
2023/03/15 11:16:06;;;;;;;4.88;1.40;;;;;;;;;;5072230;28;20594;-63
2023/03/15 11:18:34;;;;;;;5.00;1.40;;;;;;;;;;5089966;28;20233;-63
2023/03/15 11:21:00;;;;;;;6.53;1.60;;;;;;;;;;5090571;28;20300;-63
2023/03/15 11:23:28;;;;;;;4.47;1.25;;;;;;;;;;5089933;28;20210;-63
2023/03/15 11:25:55;;;;;;;7.80;1.67;;;;;;;;;;5072056;28;20869;-63
2023/03/15 11:28:23;;;;;;;6.03;1.52;;;;;;;;;;5072453;28;20665;-63
2023/03/15 11:30:49;;;;;;;3.25;1.30;;;;;;;;;;5071643;28;20206;-63
2023/03/15 11:33:25;;;;;;;5.47;1.40;;;;;;;;;;5089012;28;20253;-63
2023/03/15 11:35:51;;;;;;;5.07;1.25;;;;;;;;;;5071929;28;20235;-63
2023/03/15 11:38:18;;;;;;;5.40;1.55;;;;;;;;;;5070435;28;20900;-63
2023/03/15 11:40:44;;;;;;;3.80;1.27;;;;;;;;;;5072621;28;20692;-63
2023/03/15 11:43:17;;;;;;;6.60;1.33;;;;;;;;;;5071639;28;20865;-63
2023/03/15 11:45:44;;;;;;;6.47;1.23;;;;;;;;;;5089543;28;20736;-63
2023/03/15 11:48:13;;;;;;;6.32;1.40;;;;;;;;;;5071916;28;20210;-63
2023/03/15 11:50:39;;;;;;;6.40;1.63;;;;;;;;;;5069615;28;20217;-64
2023/03/15 11:53:05;;;;;;;4.85;1.40;;;;;;;;;;5088817;28;20218;-63
2023/03/15 11:55:31;;;;;;;6.85;1.50;;;;;;;;;;5071238;28;20206;-64
2023/03/15 11:57:57;;;;;;;5.50;1.67;;;;;;;;;;5072338;28;20220;-63
2023/03/15 12:00:25;;;;;;;5.50;1.50;;;;;;;;;;5088139;28;20205;-63
2023/03/15 12:02:53;;;;;;;9.27;1.75;;;;;;;;;;5090142;28;20213;-63
2023/03/15 12:05:37;;;;;;;5.10;1.30;;;;;;;;;;5071789;28;20214;-63
2023/03/15 12:08:20;;;;;;;5.47;1.50;;;;;;;;;;5088567;28;20212;-62
2023/03/15 12:10:45;;;;;;;6.80;1.30;;;;;;;;;;5089357;28;20211;-63
2023/03/15 12:13:18;;;;;;;4.97;1.50;;;;;;;;;;5089014;28;20300;-64
2023/03/15 12:15:43;;;;;;;4.35;1.27;;;;;;;;;;5087737;28;20631;-64
2023/03/15 12:18:12;;;;;;;6.75;1.58;;;;;;;;;;5089179;28;20309;-63
2023/03/15 12:20:38;;;;;;;6.53;1.63;;;;;;;;;;5071272;28;20234;-64
2023/03/15 12:23:19;;;;;;;5.53;1.40;;;;;;;;;;5088905;28;20209;-64
2023/03/15 12:25:50;;;;;;;5.22;1.60;;;;;;;;;;5070494;28;20205;-63
2023/03/15 12:28:20;;;;;;;4.32;1.40;;;;;;;;;;5086987;28;20214;-63
2023/03/15 12:30:45;;;;;;;4.75;1.30;;;;;;;;;;5072051;28;20210;-63
2023/03/15 12:33:12;;;;;;;6.03;1.60;;;;;;;;;;5069979;28;20288;-63
2023/03/15 12:35:38;;;;;;;5.32;1.33;;;;;;;;;;5088492;28;20724;-64
2023/03/15 12:38:08;;;;;;;6.38;1.52;;;;;;;;;;5089077;28;20221;-63
2023/03/15 12:40:38;;;;;;;4.45;1.45;;;;;;;;;;5071816;28;20210;-63
2023/03/15 12:43:03;;;;;;;5.03;1.60;;;;;;;;;;5088860;28;20213;-63
2023/03/15 12:45:34;;;;;;;7.20;1.30;;;;;;;;;;5089928;28;20829;-63
2023/03/15 12:47:59;;;;;;;4.97;1.33;;;;;;;;;;5089317;28;20559;-63
2023/03/15 12:50:36;;;;;;;4.28;1.20;;;;;;;;;;5093064;28;20206;-63
2023/03/15 12:53:02;;;;;;;5.03;1.40;;;;;;;;;;5092603;28;20217;-62
2023/03/15 12:55:28;;;;;;;5.93;1.52;;;;;;;;;;5092872;28;20771;-63
2023/03/15 12:57:53;;;;;;;4.80;1.23;;;;;;;;;;5075498;28;20213;-63
2023/03/15 13:00:20;;;;;;;5.38;1.30;;;;;;;;;;5074977;28;20214;-63
2023/03/15 13:02:48;;;;;;;5.00;1.23;;;;;;;;;;5074471;28;20202;-63
2023/03/15 13:05:21;;;;;;;5.07;1.20;;;;;;;;;;5092847;28;20545;-63
2023/03/15 13:07:50;;;;;;;2.83;0.95;;;;;;;;;;5074730;28;20214;-63
2023/03/15 13:10:22;;;;;;;6.03;1.42;;;;;;;;;;5074025;28;20210;-63
2023/03/15 13:12:55;;;;;;;8.32;1.33;;;;;;;;;;5093163;28;20225;-63
2023/03/15 13:15:26;;;;;;;5.90;1.27;;;;;;;;;;5092647;28;21068;-63
2023/03/15 13:17:56;;;;;;;8.65;1.50;;;;;;;;;;5074097;28;20267;-63
2023/03/15 13:20:27;;;;;;;6.32;1.58;;;;;;;;;;5092612;28;20221;-63
2023/03/15 13:23:05;;;;;;;4.55;1.42;;;;;;;;;;5072236;28;20205;-63
2023/03/15 13:25:30;;;;;;;5.95;1.48;;;;;;;;;;5073821;28;20206;-63
2023/03/15 13:28:04;;;;;;;4.38;1.23;;;;;;;;;;5092888;28;20738;-63
2023/03/15 13:30:30;;;;;;;8.55;1.40;;;;;;;;;;5091400;28;20217;-64
2023/03/15 13:33:07;;;;;;;6.97;1.30;;;;;;;;;;5072273;28;20214;-63
2023/03/15 13:35:33;;;;;;;6.90;1.30;;;;;;;;;;5092110;28;20236;-63
2023/03/15 13:38:05;;;;;;;6.05;1.35;;;;;;;;;;5073806;28;20240;-63
2023/03/15 13:40:31;;;;;;;3.92;1.15;;;;;;;;;;5092379;28;20233;-63
2023/03/15 13:42:58;;;;;;;5.38;1.20;;;;;;;;;;5092509;28;20248;-63
2023/03/15 13:45:23;;;;;;;6.05;1.33;;;;;;;;;;5091518;28;20221;-63
2023/03/15 13:47:49;;;;;;;5.47;1.63;;;;;;;;;;5086894;28;20206;-63
2023/03/15 13:50:15;;;;;;;6.55;1.50;;;;;;;;;;5091773;28;20267;-63
2023/03/15 13:52:41;;;;;;;5.30;1.25;;;;;;;;;;5091648;28;20225;-63
2023/03/15 13:55:06;;;;;;;5.88;1.30;;;;;;;;;;5091675;28;20574;-63
2023/03/15 13:57:32;;;;;;;6.38;1.42;;;;;;;;;;5092407;28;20519;-63
2023/03/15 14:00:10;;;;;;;4.72;1.25;;;;;;;;;;5090295;28;20210;-63
2023/03/15 14:02:35;;;;;;;3.88;1.40;;;;;;;;;;5091938;28;20209;-63
2023/03/15 14:05:04;;;;;;;6.07;1.30;;;;;;;;;;5091675;28;20282;-62
2023/03/15 14:07:36;;;;;;;7.30;1.42;;;;;;;;;;5091475;28;20225;-63
2023/03/15 14:10:15;;;;;;;5.90;1.55;;;;;;;;;;5091530;28;20213;-62
2023/03/15 14:12:40;;;;;;;4.20;1.10;;;;;;;;;;5091312;28;20225;-63
2023/03/15 14:15:13;;;;;;;5.95;1.67;;;;;;;;;;5073605;28;20213;-63
2023/03/15 14:17:38;;;;;;;6.22;1.58;;;;;;;;;;5091817;28;20240;-63
2023/03/15 14:20:07;;;;;;;7.75;1.58;;;;;;;;;;5072430;28;20206;-63
2023/03/15 14:22:34;;;;;;;6.90;1.50;;;;;;;;;;5091829;28;20672;-63
2023/03/15 14:24:59;;;;;;;4.50;1.10;;;;;;;;;;5091667;28;20564;-63
2023/03/15 14:27:25;;;;;;;5.00;1.17;;;;;;;;;;5072481;28;20213;-63
2023/03/15 14:29:53;;;;;;;4.22;1.10;;;;;;;;;;5091774;28;20205;-63
2023/03/15 14:32:23;;;;;;;5.80;1.90;;;;;;;;;;5091062;28;20707;-63
2023/03/15 14:34:48;;;;;;;6.63;1.80;;;;;;;;;;5090871;28;20205;-63
2023/03/15 14:37:28;;;;;;;4.50;1.50;;;;;;;;;;5091106;28;20210;-63
2023/03/15 14:40:02;;;;;;;7.05;1.70;;;;;;;;;;5073382;28;20370;-63